sensor_id;sensor_type;location;lat;lon;timestamp;temperature;humidity
17296;DHT22;8766;51.480;6.872;2022-10-30T00:01:39;19.20;65.40
17296;DHT22;8766;51.480;6.872;2022-10-30T00:04:06;19.20;65.40
17296;DHT22;8766;51.480;6.872;2022-10-30T00:06:32;19.20;65.40
17296;DHT22;8766;51.480;6.872;2022-10-30T00:08:59;19.20;65.50
17296;DHT22;8766;51.480;6.872;2022-10-30T00:11:27;19.20;65.50
17296;DHT22;8766;51.480;6.872;2022-10-30T00:13:54;19.10;65.40
17296;DHT22;8766;51.480;6.872;2022-10-30T00:16:21;19.20;65.50
17296;DHT22;8766;51.480;6.872;2022-10-30T00:18:48;19.20;65.50
17296;DHT22;8766;51.480;6.872;2022-10-30T00:21:15;19.20;65.50
17296;DHT22;8766;51.480;6.872;2022-10-30T00:23:45;19.20;65.50
17296;DHT22;8766;51.480;6.872;2022-10-30T00:26:12;19.10;65.40
17296;DHT22;8766;51.480;6.872;2022-10-30T00:28:40;19.20;65.40
17296;DHT22;8766;51.480;6.872;2022-10-30T00:31:07;19.20;65.40
17296;DHT22;8766;51.480;6.872;2022-10-30T00:33:34;19.20;65.40
17296;DHT22;8766;51.480;6.872;2022-10-30T00:36:01;19.20;65.40
17296;DHT22;8766;51.480;6.872;2022-10-30T00:38:27;19.10;65.30
17296;DHT22;8766;51.480;6.872;2022-10-30T00:40:54;19.10;65.30
17296;DHT22;8766;51.480;6.872;2022-10-30T00:43:32;19.10;65.30
17296;DHT22;8766;51.480;6.872;2022-10-30T00:46:04;19.10;65.40
17296;DHT22;8766;51.480;6.872;2022-10-30T00:48:31;19.10;65.40
17296;DHT22;8766;51.480;6.872;2022-10-30T00:51:00;19.10;65.40
17296;DHT22;8766;51.480;6.872;2022-10-30T00:53:28;19.10;65.40
17296;DHT22;8766;51.480;6.872;2022-10-30T00:55:57;19.10;65.40
17296;DHT22;8766;51.480;6.872;2022-10-30T00:58:28;19.00;65.40
17296;DHT22;8766;51.480;6.872;2022-10-30T01:00:57;19.00;65.50
17296;DHT22;8766;51.480;6.872;2022-10-30T01:03:26;19.00;65.50
17296;DHT22;8766;51.480;6.872;2022-10-30T01:05:56;19.00;65.50
17296;DHT22;8766;51.480;6.872;2022-10-30T01:08:23;19.00;65.60
17296;DHT22;8766;51.480;6.872;2022-10-30T01:10:50;19.00;65.60
17296;DHT22;8766;51.480;6.872;2022-10-30T01:13:20;18.90;65.70
17296;DHT22;8766;51.480;6.872;2022-10-30T01:15:56;18.90;65.70
17296;DHT22;8766;51.480;6.872;2022-10-30T01:18:34;18.90;65.80
17296;DHT22;8766;51.480;6.872;2022-10-30T01:21:18;18.80;65.80
17296;DHT22;8766;51.480;6.872;2022-10-30T01:23:59;18.80;65.80
17296;DHT22;8766;51.480;6.872;2022-10-30T01:26:37;18.80;65.80
17296;DHT22;8766;51.480;6.872;2022-10-30T01:29:20;18.80;65.80
17296;DHT22;8766;51.480;6.872;2022-10-30T01:31:58;18.90;65.90
17296;DHT22;8766;51.480;6.872;2022-10-30T01:34:36;18.80;65.80
17296;DHT22;8766;51.480;6.872;2022-10-30T01:37:11;18.80;65.80
17296;DHT22;8766;51.480;6.872;2022-10-30T01:39:40;18.80;65.90
17296;DHT22;8766;51.480;6.872;2022-10-30T01:42:08;18.80;65.90
17296;DHT22;8766;51.480;6.872;2022-10-30T01:44:36;18.80;65.90
17296;DHT22;8766;51.480;6.872;2022-10-30T01:47:24;18.70;65.80
17296;DHT22;8766;51.480;6.872;2022-10-30T01:50:14;18.70;65.90
17296;DHT22;8766;51.480;6.872;2022-10-30T01:52:48;18.70;66.00
17296;DHT22;8766;51.480;6.872;2022-10-30T01:55:25;18.60;66.00
17296;DHT22;8766;51.480;6.872;2022-10-30T01:58:01;18.60;66.10
17296;DHT22;8766;51.480;6.872;2022-10-30T02:00:31;18.50;66.10
17296;DHT22;8766;51.480;6.872;2022-10-30T02:02:58;18.50;66.20
17296;DHT22;8766;51.480;6.872;2022-10-30T02:05:32;18.50;66.20
17296;DHT22;8766;51.480;6.872;2022-10-30T02:08:01;18.50;66.30
17296;DHT22;8766;51.480;6.872;2022-10-30T02:10:29;18.50;66.30
17296;DHT22;8766;51.480;6.872;2022-10-30T02:12:56;18.40;66.30
17296;DHT22;8766;51.480;6.872;2022-10-30T02:15:23;18.40;66.40
17296;DHT22;8766;51.480;6.872;2022-10-30T02:17:50;18.50;66.60
17296;DHT22;8766;51.480;6.872;2022-10-30T02:20:18;18.30;66.60
17296;DHT22;8766;51.480;6.872;2022-10-30T02:22:46;18.30;66.70
17296;DHT22;8766;51.480;6.872;2022-10-30T02:25:13;18.40;66.90
17296;DHT22;8766;51.480;6.872;2022-10-30T02:27:40;18.20;66.80
17296;DHT22;8766;51.480;6.872;2022-10-30T02:30:08;18.20;66.90
17296;DHT22;8766;51.480;6.872;2022-10-30T02:32:35;18.10;66.90
17296;DHT22;8766;51.480;6.872;2022-10-30T02:35:02;18.10;67.00
17296;DHT22;8766;51.480;6.872;2022-10-30T02:37:30;18.10;67.00
17296;DHT22;8766;51.480;6.872;2022-10-30T02:40:00;18.10;67.10
17296;DHT22;8766;51.480;6.872;2022-10-30T02:42:27;18.10;67.10
17296;DHT22;8766;51.480;6.872;2022-10-30T02:44:53;18.00;67.10
17296;DHT22;8766;51.480;6.872;2022-10-30T02:47:20;18.00;67.10
17296;DHT22;8766;51.480;6.872;2022-10-30T02:49:47;18.00;67.10
17296;DHT22;8766;51.480;6.872;2022-10-30T02:52:13;18.00;67.10
17296;DHT22;8766;51.480;6.872;2022-10-30T02:54:41;18.00;67.20
17296;DHT22;8766;51.480;6.872;2022-10-30T02:57:09;17.90;67.30
17296;DHT22;8766;51.480;6.872;2022-10-30T02:59:35;18.00;67.30
17296;DHT22;8766;51.480;6.872;2022-10-30T03:02:02;17.90;67.30
17296;DHT22;8766;51.480;6.872;2022-10-30T03:04:29;17.90;67.30
17296;DHT22;8766;51.480;6.872;2022-10-30T03:06:56;17.90;67.40
17296;DHT22;8766;51.480;6.872;2022-10-30T03:09:22;18.00;67.40
17296;DHT22;8766;51.480;6.872;2022-10-30T03:11:50;17.90;67.30
17296;DHT22;8766;51.480;6.872;2022-10-30T03:14:17;17.90;67.30
17296;DHT22;8766;51.480;6.872;2022-10-30T03:16:44;17.90;67.30
17296;DHT22;8766;51.480;6.872;2022-10-30T03:19:10;18.00;67.30
17296;DHT22;8766;51.480;6.872;2022-10-30T03:21:37;17.90;67.20
17296;DHT22;8766;51.480;6.872;2022-10-30T03:24:04;17.90;67.20
17296;DHT22;8766;51.480;6.872;2022-10-30T03:26:31;17.90;67.80
17296;DHT22;8766;51.480;6.872;2022-10-30T03:28:59;17.90;67.10
17296;DHT22;8766;51.480;6.872;2022-10-30T03:31:26;17.90;67.10
17296;DHT22;8766;51.480;6.872;2022-10-30T03:33:53;17.80;67.10
17296;DHT22;8766;51.480;6.872;2022-10-30T03:36:19;17.90;67.20
17296;DHT22;8766;51.480;6.872;2022-10-30T03:38:46;17.90;67.20
17296;DHT22;8766;51.480;6.872;2022-10-30T03:41:13;17.90;67.20
17296;DHT22;8766;51.480;6.872;2022-10-30T03:43:40;17.80;67.20
17296;DHT22;8766;51.480;6.872;2022-10-30T03:46:09;17.80;67.20
17296;DHT22;8766;51.480;6.872;2022-10-30T03:48:36;17.80;67.30
17296;DHT22;8766;51.480;6.872;2022-10-30T03:51:03;17.70;67.30
17296;DHT22;8766;51.480;6.872;2022-10-30T03:53:29;17.70;67.50
17296;DHT22;8766;51.480;6.872;2022-10-30T03:55:58;17.70;67.60
17296;DHT22;8766;51.480;6.872;2022-10-30T03:58:25;17.60;67.60
17296;DHT22;8766;51.480;6.872;2022-10-30T04:00:52;17.60;67.80
17296;DHT22;8766;51.480;6.872;2022-10-30T04:03:20;17.50;67.80
17296;DHT22;8766;51.480;6.872;2022-10-30T04:05:47;17.50;68.60
17296;DHT22;8766;51.480;6.872;2022-10-30T04:08:15;17.50;68.10
17296;DHT22;8766;51.480;6.872;2022-10-30T04:10:43;17.40;68.20
17296;DHT22;8766;51.480;6.872;2022-10-30T04:13:11;17.40;68.30
17296;DHT22;8766;51.480;6.872;2022-10-30T04:15:38;17.30;68.30
17296;DHT22;8766;51.480;6.872;2022-10-30T04:18:06;17.30;68.40
17296;DHT22;8766;51.480;6.872;2022-10-30T04:20:34;17.20;68.40
17296;DHT22;8766;51.480;6.872;2022-10-30T04:23:02;17.20;68.50
17296;DHT22;8766;51.480;6.872;2022-10-30T04:25:30;17.10;68.50
17296;DHT22;8766;51.480;6.872;2022-10-30T04:27:57;17.10;68.60
17296;DHT22;8766;51.480;6.872;2022-10-30T04:30:24;17.10;68.60
17296;DHT22;8766;51.480;6.872;2022-10-30T04:32:52;17.00;68.60
17296;DHT22;8766;51.480;6.872;2022-10-30T04:35:22;17.00;68.80
17296;DHT22;8766;51.480;6.872;2022-10-30T04:37:54;17.00;68.90
17296;DHT22;8766;51.480;6.872;2022-10-30T04:40:21;17.00;69.00
17296;DHT22;8766;51.480;6.872;2022-10-30T04:42:49;16.80;68.90
17296;DHT22;8766;51.480;6.872;2022-10-30T04:45:16;16.90;69.10
17296;DHT22;8766;51.480;6.872;2022-10-30T04:47:44;16.90;69.10
17296;DHT22;8766;51.480;6.872;2022-10-30T04:50:11;16.80;69.20
17296;DHT22;8766;51.480;6.872;2022-10-30T04:52:38;16.80;69.20
17296;DHT22;8766;51.480;6.872;2022-10-30T04:55:08;16.70;69.30
17296;DHT22;8766;51.480;6.872;2022-10-30T04:57:35;16.70;69.40
17296;DHT22;8766;51.480;6.872;2022-10-30T05:00:02;16.70;69.40
17296;DHT22;8766;51.480;6.872;2022-10-30T05:02:29;16.60;69.40
17296;DHT22;8766;51.480;6.872;2022-10-30T05:04:56;16.60;69.50
17296;DHT22;8766;51.480;6.872;2022-10-30T05:07:22;16.60;69.50
17296;DHT22;8766;51.480;6.872;2022-10-30T05:09:49;16.60;69.50
17296;DHT22;8766;51.480;6.872;2022-10-30T05:12:17;16.60;69.60
17296;DHT22;8766;51.480;6.872;2022-10-30T05:14:45;16.50;70.20
17296;DHT22;8766;51.480;6.872;2022-10-30T05:17:12;16.50;69.60
17296;DHT22;8766;51.480;6.872;2022-10-30T05:19:38;16.50;69.60
17296;DHT22;8766;51.480;6.872;2022-10-30T05:22:05;16.50;69.70
17296;DHT22;8766;51.480;6.872;2022-10-30T05:24:32;16.50;69.80
17296;DHT22;8766;51.480;6.872;2022-10-30T05:26:58;16.40;69.70
17296;DHT22;8766;51.480;6.872;2022-10-30T05:29:26;16.40;69.80
17296;DHT22;8766;51.480;6.872;2022-10-30T05:31:53;16.40;69.80
17296;DHT22;8766;51.480;6.872;2022-10-30T05:34:20;16.40;69.80
17296;DHT22;8766;51.480;6.872;2022-10-30T05:36:47;16.40;69.90
17296;DHT22;8766;51.480;6.872;2022-10-30T05:39:13;16.30;69.90
17296;DHT22;8766;51.480;6.872;2022-10-30T05:41:40;16.30;70.00
17296;DHT22;8766;51.480;6.872;2022-10-30T05:44:07;16.30;70.00
17296;DHT22;8766;51.480;6.872;2022-10-30T05:46:35;16.20;70.00
17296;DHT22;8766;51.480;6.872;2022-10-30T05:49:02;16.20;70.10
17296;DHT22;8766;51.480;6.872;2022-10-30T05:51:28;16.20;70.10
17296;DHT22;8766;51.480;6.872;2022-10-30T05:53:55;16.20;70.10
17296;DHT22;8766;51.480;6.872;2022-10-30T05:56:22;16.20;70.10
17296;DHT22;8766;51.480;6.872;2022-10-30T05:58:49;16.20;70.10
17296;DHT22;8766;51.480;6.872;2022-10-30T06:01:16;16.20;70.10
17296;DHT22;8766;51.480;6.872;2022-10-30T06:03:44;16.20;70.00
17296;DHT22;8766;51.480;6.872;2022-10-30T06:06:11;16.20;70.00
17296;DHT22;8766;51.480;6.872;2022-10-30T06:08:38;16.20;69.90
17296;DHT22;8766;51.480;6.872;2022-10-30T06:11:05;16.20;69.90
17296;DHT22;8766;51.480;6.872;2022-10-30T06:13:31;16.20;70.00
17296;DHT22;8766;51.480;6.872;2022-10-30T06:15:58;16.20;70.00
17296;DHT22;8766;51.480;6.872;2022-10-30T06:18:25;16.20;70.00
17296;DHT22;8766;51.480;6.872;2022-10-30T06:20:55;16.20;70.00
17296;DHT22;8766;51.480;6.872;2022-10-30T06:23:21;16.20;70.00
17296;DHT22;8766;51.480;6.872;2022-10-30T06:25:48;16.20;69.90
17296;DHT22;8766;51.480;6.872;2022-10-30T06:28:15;16.20;69.90
17296;DHT22;8766;51.480;6.872;2022-10-30T06:30:42;16.20;70.00
17296;DHT22;8766;51.480;6.872;2022-10-30T06:33:08;16.20;70.00
17296;DHT22;8766;51.480;6.872;2022-10-30T06:35:35;16.20;70.00
17296;DHT22;8766;51.480;6.872;2022-10-30T06:38:03;16.20;70.00
17296;DHT22;8766;51.480;6.872;2022-10-30T06:40:30;16.20;70.60
17296;DHT22;8766;51.480;6.872;2022-10-30T06:42:57;16.20;70.00
17296;DHT22;8766;51.480;6.872;2022-10-30T06:45:24;16.30;70.10
17296;DHT22;8766;51.480;6.872;2022-10-30T06:47:51;16.20;70.00
17296;DHT22;8766;51.480;6.872;2022-10-30T06:50:19;16.20;70.00
17296;DHT22;8766;51.480;6.872;2022-10-30T06:52:46;16.20;70.00
17296;DHT22;8766;51.480;6.872;2022-10-30T06:55:15;16.20;69.90
17296;DHT22;8766;51.480;6.872;2022-10-30T06:57:42;16.20;69.90
17296;DHT22;8766;51.480;6.872;2022-10-30T07:00:10;16.20;69.80
17296;DHT22;8766;51.480;6.872;2022-10-30T07:02:37;16.20;69.70
17296;DHT22;8766;51.480;6.872;2022-10-30T07:05:04;16.30;69.60
17296;DHT22;8766;51.480;6.872;2022-10-30T07:07:31;16.40;69.50
17296;DHT22;8766;51.480;6.872;2022-10-30T07:09:58;16.40;69.30
17296;DHT22;8766;51.480;6.872;2022-10-30T07:12:26;16.50;69.20
17296;DHT22;8766;51.480;6.872;2022-10-30T07:14:53;16.50;69.00
17296;DHT22;8766;51.480;6.872;2022-10-30T07:17:20;16.60;69.00
17296;DHT22;8766;51.480;6.872;2022-10-30T07:19:47;16.60;68.80
17296;DHT22;8766;51.480;6.872;2022-10-30T07:22:13;16.70;68.70
17296;DHT22;8766;51.480;6.872;2022-10-30T07:24:40;16.70;68.60
17296;DHT22;8766;51.480;6.872;2022-10-30T07:27:07;16.70;68.50
17296;DHT22;8766;51.480;6.872;2022-10-30T07:29:35;16.70;68.30
17296;DHT22;8766;51.480;6.872;2022-10-30T07:32:02;16.90;68.30
17296;DHT22;8766;51.480;6.872;2022-10-30T07:34:29;16.90;68.80
17296;DHT22;8766;51.480;6.872;2022-10-30T07:36:56;17.00;68.10
17296;DHT22;8766;51.480;6.872;2022-10-30T07:39:23;17.00;67.80
17296;DHT22;8766;51.480;6.872;2022-10-30T07:41:49;17.10;67.80
17296;DHT22;8766;51.480;6.872;2022-10-30T07:44:16;17.20;67.60
17296;DHT22;8766;51.480;6.872;2022-10-30T07:46:44;17.40;67.80
17296;DHT22;8766;51.480;6.872;2022-10-30T07:49:11;17.20;67.60
17296;DHT22;8766;51.480;6.872;2022-10-30T07:51:38;17.20;67.50
17296;DHT22;8766;51.480;6.872;2022-10-30T07:54:05;17.30;67.30
17296;DHT22;8766;51.480;6.872;2022-10-30T07:56:31;17.70;66.90
17296;DHT22;8766;51.480;6.872;2022-10-30T07:58:58;18.20;65.90
17296;DHT22;8766;51.480;6.872;2022-10-30T08:01:25;19.00;64.10
17296;DHT22;8766;51.480;6.872;2022-10-30T08:03:53;19.70;62.30
17296;DHT22;8766;51.480;6.872;2022-10-30T08:06:20;20.40;60.70
17296;DHT22;8766;51.480;6.872;2022-10-30T08:08:47;20.70;60.10
17296;DHT22;8766;51.480;6.872;2022-10-30T08:11:13;20.60;60.20
17296;DHT22;8766;51.480;6.872;2022-10-30T08:13:40;20.60;60.50
17296;DHT22;8766;51.480;6.872;2022-10-30T08:16:07;20.80;60.20
17296;DHT22;8766;51.480;6.872;2022-10-30T08:18:34;21.00;60.10
17296;DHT22;8766;51.480;6.872;2022-10-30T08:21:04;21.20;59.90
17296;DHT22;8766;51.480;6.872;2022-10-30T08:23:31;21.40;59.50
17296;DHT22;8766;51.480;6.872;2022-10-30T08:25:58;21.70;59.00
17296;DHT22;8766;51.480;6.872;2022-10-30T08:28:25;22.30;58.40
17296;DHT22;8766;51.480;6.872;2022-10-30T08:30:52;23.10;57.20
17296;DHT22;8766;51.480;6.872;2022-10-30T08:33:19;23.80;55.80
17296;DHT22;8766;51.480;6.872;2022-10-30T08:35:47;24.30;54.90
17296;DHT22;8766;51.480;6.872;2022-10-30T08:38:16;24.50;54.60
17296;DHT22;8766;51.480;6.872;2022-10-30T08:40:42;25.10;54.00
17296;DHT22;8766;51.480;6.872;2022-10-30T08:43:09;25.60;53.50
17296;DHT22;8766;51.480;6.872;2022-10-30T08:45:36;25.90;53.00
17296;DHT22;8766;51.480;6.872;2022-10-30T08:48:04;26.40;52.60
17296;DHT22;8766;51.480;6.872;2022-10-30T08:50:32;26.80;52.10
17296;DHT22;8766;51.480;6.872;2022-10-30T08:53:00;27.20;51.50
17296;DHT22;8766;51.480;6.872;2022-10-30T08:55:29;27.60;51.30
17296;DHT22;8766;51.480;6.872;2022-10-30T08:57:56;27.90;50.90
17296;DHT22;8766;51.480;6.872;2022-10-30T09:00:29;28.20;50.70
17296;DHT22;8766;51.480;6.872;2022-10-30T09:03:00;28.00;51.00
17296;DHT22;8766;51.480;6.872;2022-10-30T09:05:27;27.20;52.10
17296;DHT22;8766;51.480;6.872;2022-10-30T09:07:57;26.50;53.70
17296;DHT22;8766;51.480;6.872;2022-10-30T09:10:25;25.40;55.20
17296;DHT22;8766;51.480;6.872;2022-10-30T09:12:58;24.60;56.60
17296;DHT22;8766;51.480;6.872;2022-10-30T09:15:29;24.00;57.80
17296;DHT22;8766;51.480;6.872;2022-10-30T09:17:56;23.40;58.60
17296;DHT22;8766;51.480;6.872;2022-10-30T09:20:23;23.00;59.30
17296;DHT22;8766;51.480;6.872;2022-10-30T09:22:53;22.70;59.80
17296;DHT22;8766;51.480;6.872;2022-10-30T09:25:23;22.50;60.20
17296;DHT22;8766;51.480;6.872;2022-10-30T09:27:50;22.60;60.10
17296;DHT22;8766;51.480;6.872;2022-10-30T09:30:18;23.00;59.60
17296;DHT22;8766;51.480;6.872;2022-10-30T09:32:45;23.50;58.40
17296;DHT22;8766;51.480;6.872;2022-10-30T09:35:19;24.50;56.90
17296;DHT22;8766;51.480;6.872;2022-10-30T09:37:45;25.10;55.60
17296;DHT22;8766;51.480;6.872;2022-10-30T09:40:20;25.60;54.80
17296;DHT22;8766;51.480;6.872;2022-10-30T09:42:49;26.00;54.10
17296;DHT22;8766;51.480;6.872;2022-10-30T09:45:47;26.40;53.60
17296;DHT22;8766;51.480;6.872;2022-10-30T09:48:47;26.80;53.20
17296;DHT22;8766;51.480;6.872;2022-10-30T09:54:19;27.50;52.30
17296;DHT22;8766;51.480;6.872;2022-10-30T09:56:54;27.80;52.50
17296;DHT22;8766;51.480;6.872;2022-10-30T09:59:31;27.90;51.80
17296;DHT22;8766;51.480;6.872;2022-10-30T10:02:15;28.00;51.80
17296;DHT22;8766;51.480;6.872;2022-10-30T10:04:45;27.60;52.00
17296;DHT22;8766;51.480;6.872;2022-10-30T10:07:19;27.50;52.70
17296;DHT22;8766;51.480;6.872;2022-10-30T10:09:50;26.90;53.20
17296;DHT22;8766;51.480;6.872;2022-10-30T10:12:24;26.30;53.90
17296;DHT22;8766;51.480;6.872;2022-10-30T10:14:53;26.10;54.40
17296;DHT22;8766;51.480;6.872;2022-10-30T10:17:29;25.90;54.40
17296;DHT22;8766;51.480;6.872;2022-10-30T10:19:58;25.50;54.80
17296;DHT22;8766;51.480;6.872;2022-10-30T10:22:27;25.20;55.50
17296;DHT22;8766;51.480;6.872;2022-10-30T10:24:56;24.70;56.00
17296;DHT22;8766;51.480;6.872;2022-10-30T10:27:32;24.40;56.70
17296;DHT22;8766;51.480;6.872;2022-10-30T10:30:08;24.00;57.30
17296;DHT22;8766;51.480;6.872;2022-10-30T10:32:56;23.70;57.80
17296;DHT22;8766;51.480;6.872;2022-10-30T10:35:45;23.40;58.30
17296;DHT22;8766;51.480;6.872;2022-10-30T10:38:22;23.20;58.60
17296;DHT22;8766;51.480;6.872;2022-10-30T10:40:59;23.00;58.90
17296;DHT22;8766;51.480;6.872;2022-10-30T10:43:36;22.90;59.00
17296;DHT22;8766;51.480;6.872;2022-10-30T10:46:22;22.70;59.10
17296;DHT22;8766;51.480;6.872;2022-10-30T10:51:47;22.60;59.30
17296;DHT22;8766;51.480;6.872;2022-10-30T10:54:19;22.50;59.30
17296;DHT22;8766;51.480;6.872;2022-10-30T10:56:49;22.50;59.30
17296;DHT22;8766;51.480;6.872;2022-10-30T10:59:40;22.50;59.30
17296;DHT22;8766;51.480;6.872;2022-10-30T11:02:42;22.50;59.30
17296;DHT22;8766;51.480;6.872;2022-10-30T11:05:29;22.40;59.20
17296;DHT22;8766;51.480;6.872;2022-10-30T11:08:20;22.40;59.20
17296;DHT22;8766;51.480;6.872;2022-10-30T11:10:56;22.40;59.30
17296;DHT22;8766;51.480;6.872;2022-10-30T11:13:24;22.30;59.20
17296;DHT22;8766;51.480;6.872;2022-10-30T11:15:58;22.30;59.20
17296;DHT22;8766;51.480;6.872;2022-10-30T11:18:42;22.40;59.30
17296;DHT22;8766;51.480;6.872;2022-10-30T11:21:20;22.30;59.20
17296;DHT22;8766;51.480;6.872;2022-10-30T11:23:51;22.30;59.10
17296;DHT22;8766;51.480;6.872;2022-10-30T11:26:32;22.30;59.10
17296;DHT22;8766;51.480;6.872;2022-10-30T11:29:04;22.40;59.10
17296;DHT22;8766;51.480;6.872;2022-10-30T11:31:39;22.40;59.10
17296;DHT22;8766;51.480;6.872;2022-10-30T11:34:14;22.30;59.00
17296;DHT22;8766;51.480;6.872;2022-10-30T11:36:48;22.40;59.00
17296;DHT22;8766;51.480;6.872;2022-10-30T11:39:18;22.40;59.00
17296;DHT22;8766;51.480;6.872;2022-10-30T11:41:49;22.40;59.00
17296;DHT22;8766;51.480;6.872;2022-10-30T11:44:26;22.40;59.10
17296;DHT22;8766;51.480;6.872;2022-10-30T11:46:55;22.30;59.00
17296;DHT22;8766;51.480;6.872;2022-10-30T11:49:30;22.20;59.00
17296;DHT22;8766;51.480;6.872;2022-10-30T11:51:58;22.30;59.00
17296;DHT22;8766;51.480;6.872;2022-10-30T11:54:26;22.40;58.90
17296;DHT22;8766;51.480;6.872;2022-10-30T11:56:53;22.30;58.70
17296;DHT22;8766;51.480;6.872;2022-10-30T11:59:22;22.50;58.70
17296;DHT22;8766;51.480;6.872;2022-10-30T12:02:01;22.50;58.70
17296;DHT22;8766;51.480;6.872;2022-10-30T12:04:28;22.40;58.70
17296;DHT22;8766;51.480;6.872;2022-10-30T12:07:15;22.50;58.80
17296;DHT22;8766;51.480;6.872;2022-10-30T12:09:43;22.40;58.80
17296;DHT22;8766;51.480;6.872;2022-10-30T12:12:12;22.50;58.80
17296;DHT22;8766;51.480;6.872;2022-10-30T12:14:45;22.40;58.80
17296;DHT22;8766;51.480;6.872;2022-10-30T12:17:14;22.40;58.80
17296;DHT22;8766;51.480;6.872;2022-10-30T12:19:48;22.40;58.80
17296;DHT22;8766;51.480;6.872;2022-10-30T12:22:38;22.40;58.90
17296;DHT22;8766;51.480;6.872;2022-10-30T12:25:15;22.30;58.90
17296;DHT22;8766;51.480;6.872;2022-10-30T12:27:44;22.30;58.90
17296;DHT22;8766;51.480;6.872;2022-10-30T12:30:15;22.30;58.90
17296;DHT22;8766;51.480;6.872;2022-10-30T12:32:47;22.30;58.90
17296;DHT22;8766;51.480;6.872;2022-10-30T12:35:23;22.30;58.90
17296;DHT22;8766;51.480;6.872;2022-10-30T12:37:54;22.40;58.90
17296;DHT22;8766;51.480;6.872;2022-10-30T12:40:29;22.30;58.80
17296;DHT22;8766;51.480;6.872;2022-10-30T12:43:04;22.40;58.80
17296;DHT22;8766;51.480;6.872;2022-10-30T12:45:40;22.40;58.80
17296;DHT22;8766;51.480;6.872;2022-10-30T12:48:17;22.40;58.70
17296;DHT22;8766;51.480;6.872;2022-10-30T12:50:54;22.40;58.80
17296;DHT22;8766;51.480;6.872;2022-10-30T12:53:34;22.60;58.90
17296;DHT22;8766;51.480;6.872;2022-10-30T12:56:09;22.40;58.80
17296;DHT22;8766;51.480;6.872;2022-10-30T12:58:45;22.40;58.80
17296;DHT22;8766;51.480;6.872;2022-10-30T13:01:18;22.40;58.80
17296;DHT22;8766;51.480;6.872;2022-10-30T13:03:56;22.40;58.70
17296;DHT22;8766;51.480;6.872;2022-10-30T13:06:27;22.40;58.70
17296;DHT22;8766;51.480;6.872;2022-10-30T13:09:06;22.40;58.70
17296;DHT22;8766;51.480;6.872;2022-10-30T13:11:38;22.40;58.80
17296;DHT22;8766;51.480;6.872;2022-10-30T13:14:12;22.30;58.80
17296;DHT22;8766;51.480;6.872;2022-10-30T13:16:40;22.40;58.90
17296;DHT22;8766;51.480;6.872;2022-10-30T13:19:10;22.30;58.90
17296;DHT22;8766;51.480;6.872;2022-10-30T13:21:40;22.30;58.90
17296;DHT22;8766;51.480;6.872;2022-10-30T13:24:11;22.30;59.00
17296;DHT22;8766;51.480;6.872;2022-10-30T13:26:43;22.30;59.00
17296;DHT22;8766;51.480;6.872;2022-10-30T13:29:17;22.20;59.00
17296;DHT22;8766;51.480;6.872;2022-10-30T13:32:10;22.20;59.00
17296;DHT22;8766;51.480;6.872;2022-10-30T13:34:47;22.20;59.10
17296;DHT22;8766;51.480;6.872;2022-10-30T13:37:23;22.20;59.10
17296;DHT22;8766;51.480;6.872;2022-10-30T13:40:03;22.20;59.10
17296;DHT22;8766;51.480;6.872;2022-10-30T13:42:44;22.10;59.20
17296;DHT22;8766;51.480;6.872;2022-10-30T13:45:29;22.10;59.20
17296;DHT22;8766;51.480;6.872;2022-10-30T13:48:04;22.10;59.30
17296;DHT22;8766;51.480;6.872;2022-10-30T13:50:41;22.10;59.30
17296;DHT22;8766;51.480;6.872;2022-10-30T13:53:15;22.00;59.30
17296;DHT22;8766;51.480;6.872;2022-10-30T13:55:46;22.00;59.30
17296;DHT22;8766;51.480;6.872;2022-10-30T13:58:21;22.00;59.40
17296;DHT22;8766;51.480;6.872;2022-10-30T14:00:57;22.00;59.30
17296;DHT22;8766;51.480;6.872;2022-10-30T14:03:33;22.10;59.40
17296;DHT22;8766;51.480;6.872;2022-10-30T14:06:09;22.00;59.30
17296;DHT22;8766;51.480;6.872;2022-10-30T14:08:41;22.00;59.30
17296;DHT22;8766;51.480;6.872;2022-10-30T14:11:12;22.00;59.30
17296;DHT22;8766;51.480;6.872;2022-10-30T14:13:52;22.00;59.30
17296;DHT22;8766;51.480;6.872;2022-10-30T14:16:39;22.00;59.30
17296;DHT22;8766;51.480;6.872;2022-10-30T14:19:07;22.00;59.30
17296;DHT22;8766;51.480;6.872;2022-10-30T14:21:40;22.00;59.30
17296;DHT22;8766;51.480;6.872;2022-10-30T14:24:13;22.00;59.30
17296;DHT22;8766;51.480;6.872;2022-10-30T14:26:45;22.00;59.30
17296;DHT22;8766;51.480;6.872;2022-10-30T14:29:29;22.00;59.30
17296;DHT22;8766;51.480;6.872;2022-10-30T14:31:57;22.00;59.30
17296;DHT22;8766;51.480;6.872;2022-10-30T14:34:40;22.00;59.20
17296;DHT22;8766;51.480;6.872;2022-10-30T14:37:08;22.10;59.40
17296;DHT22;8766;51.480;6.872;2022-10-30T14:39:40;22.00;59.30
17296;DHT22;8766;51.480;6.872;2022-10-30T14:42:13;22.00;59.30
17296;DHT22;8766;51.480;6.872;2022-10-30T14:44:58;22.10;59.50
17296;DHT22;8766;51.480;6.872;2022-10-30T14:47:55;21.90;59.50
17296;DHT22;8766;51.480;6.872;2022-10-30T14:50:55;21.90;59.60
17296;DHT22;8766;51.480;6.872;2022-10-30T14:53:36;21.80;59.70
17296;DHT22;8766;51.480;6.872;2022-10-30T14:59:22;21.70;59.90
17296;DHT22;8766;51.480;6.872;2022-10-30T15:01:58;21.60;59.90
17296;DHT22;8766;51.480;6.872;2022-10-30T15:04:36;21.60;60.00
17296;DHT22;8766;51.480;6.872;2022-10-30T15:07:12;21.70;60.20
17296;DHT22;8766;51.480;6.872;2022-10-30T15:09:55;21.50;60.20
17296;DHT22;8766;51.480;6.872;2022-10-30T15:12:38;21.50;60.40
17296;DHT22;8766;51.480;6.872;2022-10-30T15:15:12;21.40;60.40
17296;DHT22;8766;51.480;6.872;2022-10-30T15:17:42;21.30;60.50
17296;DHT22;8766;51.480;6.872;2022-10-30T15:20:16;21.30;60.60
17296;DHT22;8766;51.480;6.872;2022-10-30T15:22:44;21.20;60.80
17296;DHT22;8766;51.480;6.872;2022-10-30T15:25:17;21.20;60.80
17296;DHT22;8766;51.480;6.872;2022-10-30T15:27:46;21.30;61.00
17296;DHT22;8766;51.480;6.872;2022-10-30T15:30:18;21.10;61.00
17296;DHT22;8766;51.480;6.872;2022-10-30T15:32:45;21.10;61.10
17296;DHT22;8766;51.480;6.872;2022-10-30T15:35:15;21.00;61.20
17296;DHT22;8766;51.480;6.872;2022-10-30T15:37:59;21.00;61.20
17296;DHT22;8766;51.480;6.872;2022-10-30T15:40:27;21.00;61.40
17296;DHT22;8766;51.480;6.872;2022-10-30T15:42:55;20.90;61.40
17296;DHT22;8766;51.480;6.872;2022-10-30T15:45:27;20.90;61.50
17296;DHT22;8766;51.480;6.872;2022-10-30T15:47:58;20.90;61.70
17296;DHT22;8766;51.480;6.872;2022-10-30T15:50:26;20.80;61.70
17296;DHT22;8766;51.480;6.872;2022-10-30T15:52:53;20.70;61.80
17296;DHT22;8766;51.480;6.872;2022-10-30T15:55:25;20.70;62.00
17296;DHT22;8766;51.480;6.872;2022-10-30T15:57:54;20.60;62.10
17296;DHT22;8766;51.480;6.872;2022-10-30T16:00:26;20.60;62.20
17296;DHT22;8766;51.480;6.872;2022-10-30T16:03:03;20.50;62.40
17296;DHT22;8766;51.480;6.872;2022-10-30T16:05:30;20.40;62.50
17296;DHT22;8766;51.480;6.872;2022-10-30T16:07:59;20.40;62.50
17296;DHT22;8766;51.480;6.872;2022-10-30T16:10:30;20.30;62.70
17296;DHT22;8766;51.480;6.872;2022-10-30T16:12:58;20.30;62.90
17296;DHT22;8766;51.480;6.872;2022-10-30T16:15:28;20.20;63.00
17296;DHT22;8766;51.480;6.872;2022-10-30T16:18:06;20.10;63.10